Time;durP1;ratioP1;P1;durP2;ratioP2;P2;SDS_P1;SDS_P2;PMS_P1;PMS_P2;Temp;Humidity;BMP_temperature;BMP_pressure;BME280_temperature;BME280_humidity;BME280_pressure;Samples;Min_cycle;Max_cycle;Signal;HPM_P1;HPM_P2
2022/05/04 00:02:18;;;;;;;12.73;4.22;;;4.30;99.90;;;;;;5002741;28;20505;-49
2022/05/04 00:04:43;;;;;;;10.48;4.43;;;4.20;99.90;;;;;;4993063;28;20026;-49
2022/05/04 00:07:09;;;;;;;10.88;4.10;;;4.20;99.90;;;;;;4992247;28;20113;-48
2022/05/04 00:09:35;;;;;;;9.32;4.35;;;4.20;99.90;;;;;;4992841;28;20104;-47
2022/05/04 00:12:00;;;;;;;12.52;3.88;;;4.20;99.90;;;;;;4992759;28;20034;-50
2022/05/04 00:14:26;;;;;;;13.93;4.35;;;4.20;99.90;;;;;;4992703;28;20030;-47
2022/05/04 00:16:52;;;;;;;8.98;3.50;;;4.10;99.90;;;;;;4975308;28;20044;-47
2022/05/04 00:19:18;;;;;;;8.27;4.13;;;4.10;99.90;;;;;;4992594;28;20026;-47
2022/05/04 00:21:44;;;;;;;8.52;4.40;;;4.10;99.90;;;;;;4992941;28;20027;-47
2022/05/04 00:24:09;;;;;;;10.93;4.60;;;4.00;99.90;;;;;;4992109;28;20057;-49
2022/05/04 00:26:35;;;;;;;7.00;4.20;;;4.00;99.90;;;;;;4974360;28;20104;-47
2022/05/04 00:29:01;;;;;;;9.30;4.55;;;4.00;99.90;;;;;;4991563;28;20032;-47
2022/05/04 00:31:26;;;;;;;13.10;4.43;;;4.00;99.90;;;;;;4992025;28;20057;-47
2022/05/04 00:33:52;;;;;;;8.40;4.20;;;4.00;99.90;;;;;;4992531;28;20092;-47
2022/05/04 00:36:17;;;;;;;8.35;5.07;;;3.90;99.90;;;;;;4991895;28;20448;-47
2022/05/04 00:38:43;;;;;;;7.20;4.75;;;3.90;99.90;;;;;;4992153;28;20109;-47
2022/05/04 00:41:09;;;;;;;8.82;4.55;;;3.90;99.90;;;;;;4992215;28;20035;-50
2022/05/04 00:43:34;;;;;;;8.60;5.03;;;3.80;99.90;;;;;;4992310;28;20034;-51
2022/05/04 00:46:00;;;;;;;10.82;4.07;;;3.80;99.90;;;;;;4992780;28;20054;-47
2022/05/04 00:48:25;;;;;;;8.50;4.10;;;3.70;99.90;;;;;;4992252;28;20405;-48
2022/05/04 00:50:52;;;;;;;12.00;4.88;;;3.60;99.90;;;;;;4991846;28;20038;-47
2022/05/04 00:53:19;;;;;;;10.02;4.22;;;3.60;99.90;;;;;;4991438;28;20403;-48
2022/05/04 00:55:46;;;;;;;7.90;4.88;;;3.60;99.90;;;;;;4991924;28;20031;-46
2022/05/04 01:01:02;;;;;;;9.35;4.85;;;3.60;99.90;;;;;;4988907;28;20041;-49
2022/05/04 01:03:28;;;;;;;11.45;5.22;;;3.60;99.90;;;;;;4978335;28;20084;-50
2022/05/04 01:05:54;;;;;;;6.22;4.35;;;3.60;99.90;;;;;;4991387;28;20125;-48
2022/05/04 01:08:19;;;;;;;7.38;3.45;;;3.50;99.90;;;;;;4991996;28;20555;-47
2022/05/04 01:10:45;;;;;;;6.10;4.32;;;3.50;99.90;;;;;;4992252;28;20037;-46
2022/05/04 01:13:10;;;;;;;7.07;4.57;;;3.50;99.90;;;;;;4991638;28;20041;-49
2022/05/04 01:15:36;;;;;;;9.20;5.07;;;3.40;99.90;;;;;;4991946;28;20109;-50
2022/05/04 01:18:02;;;;;;;6.72;4.60;;;3.40;99.90;;;;;;4991835;28;20109;-48
2022/05/04 01:20:27;;;;;;;11.02;5.10;;;3.40;99.90;;;;;;4991703;28;20030;-47
2022/05/04 01:22:54;;;;;;;10.68;4.30;;;3.30;99.90;;;;;;4991828;28;20026;-47
2022/05/04 01:25:19;;;;;;;6.40;4.40;;;3.30;99.90;;;;;;4991812;28;20113;-48
2022/05/04 01:27:45;;;;;;;8.00;4.63;;;3.20;99.90;;;;;;4974015;28;20117;-48
2022/05/04 01:30:12;;;;;;;12.32;4.93;;;3.20;99.90;;;;;;4991579;28;20031;-47
2022/05/04 01:32:38;;;;;;;10.13;5.05;;;3.20;99.90;;;;;;4991120;28;20026;-47
2022/05/04 01:35:04;;;;;;;12.57;5.07;;;3.20;99.90;;;;;;4991168;28;20026;-46
2022/05/04 01:37:30;;;;;;;8.25;4.68;;;3.10;99.90;;;;;;4991418;28;20077;-48
2022/05/04 01:39:55;;;;;;;7.28;4.30;;;3.10;99.90;;;;;;4979412;28;20039;-46
2022/05/04 01:42:24;;;;;;;8.57;5.38;;;3.10;99.90;;;;;;4986544;28;20019;-46
2022/05/04 01:44:50;;;;;;;8.80;4.90;;;3.10;99.90;;;;;;4955075;28;20027;-48
2022/05/04 01:47:16;;;;;;;9.55;5.60;;;3.10;99.90;;;;;;4972000;28;20082;-47
2022/05/04 01:49:41;;;;;;;7.22;5.22;;;3.00;99.90;;;;;;4970286;28;20034;-46
2022/05/04 01:52:07;;;;;;;12.73;5.40;;;3.00;99.90;;;;;;4987310;28;20054;-48
2022/05/04 01:54:33;;;;;;;12.20;5.70;;;3.10;99.90;;;;;;4954431;28;20113;-47
2022/05/04 01:56:59;;;;;;;14.60;6.10;;;3.10;99.90;;;;;;4954641;28;20031;-49
2022/05/04 01:59:25;;;;;;;10.30;5.63;;;3.00;99.90;;;;;;4971949;28;20408;-46
2022/05/04 02:01:50;;;;;;;9.43;6.07;;;3.00;99.90;;;;;;4971720;28;20026;-46
2022/05/04 02:04:17;;;;;;;7.63;5.25;;;3.00;99.90;;;;;;4971609;28;20165;-47
2022/05/04 02:06:43;;;;;;;8.93;5.68;;;3.00;99.90;;;;;;4953416;28;20537;-47
2022/05/04 02:09:09;;;;;;;14.88;5.68;;;3.00;99.90;;;;;;4971657;28;20038;-48
2022/05/04 02:11:35;;;;;;;9.10;5.97;;;3.00;99.90;;;;;;4971261;28;20035;-47
2022/05/04 02:14:01;;;;;;;9.38;5.63;;;3.00;99.90;;;;;;4971078;28;20042;-48
2022/05/04 02:16:28;;;;;;;12.23;6.63;;;2.90;99.90;;;;;;4954053;28;20026;-48
2022/05/04 02:18:54;;;;;;;11.85;5.43;;;2.90;99.90;;;;;;4970468;28;20033;-48
2022/05/04 02:21:20;;;;;;;9.52;5.85;;;2.90;99.90;;;;;;4970986;28;20106;-49
2022/05/04 02:23:45;;;;;;;14.43;6.65;;;2.90;99.90;;;;;;4971317;28;20130;-47
2022/05/04 02:26:11;;;;;;;8.35;5.55;;;2.90;99.90;;;;;;4971320;28;20035;-47
2022/05/04 02:28:36;;;;;;;9.68;6.32;;;2.90;99.90;;;;;;4971126;28;20786;-46
2022/05/04 02:31:02;;;;;;;18.75;7.10;;;2.80;99.90;;;;;;4970318;28;20031;-46
2022/05/04 02:33:28;;;;;;;8.52;6.57;;;2.80;99.90;;;;;;4971046;28;20668;-46
2022/05/04 02:38:58;;;;;;;13.27;6.82;;;2.80;99.90;;;;;;4930633;29;20038;-46
2022/05/04 02:41:23;;;;;;;9.52;6.63;;;2.80;99.90;;;;;;4930309;29;20118;-46
2022/05/04 02:43:49;;;;;;;8.15;6.25;;;2.80;99.90;;;;;;4948968;28;20035;-49
2022/05/04 02:46:17;;;;;;;9.40;6.80;;;2.80;99.90;;;;;;4953919;28;20085;-47
2022/05/04 02:48:43;;;;;;;10.88;7.03;;;2.80;99.90;;;;;;4971013;28;20035;-46
2022/05/04 02:51:09;;;;;;;8.23;6.72;;;2.80;99.90;;;;;;4970735;28;20526;-52
2022/05/04 02:53:35;;;;;;;13.43;7.00;;;2.80;99.90;;;;;;5030773;23;20050;-47
2022/05/04 02:56:01;;;;;;;10.15;6.20;;;2.70;99.90;;;;;;5008987;28;20425;-46
2022/05/04 02:58:27;;;;;;;15.00;6.93;;;2.70;99.90;;;;;;5008923;28;20026;-46
2022/05/04 03:00:52;;;;;;;14.35;7.32;;;2.70;99.90;;;;;;5009939;28;20022;-46
2022/05/04 03:03:18;;;;;;;17.15;7.22;;;2.70;99.90;;;;;;5009748;28;20525;-48
2022/05/04 03:05:44;;;;;;;16.40;7.60;;;2.70;99.90;;;;;;5010147;28;20033;-46
2022/05/04 03:08:10;;;;;;;13.90;7.40;;;2.70;99.90;;;;;;5010164;28;20032;-46
2022/05/04 03:11:54;;;;;;;14.45;7.30;;;2.60;99.90;;;;;;5010040;28;20026;-47
2022/05/04 03:13:21;;;;;;;14.05;6.80;;;2.60;99.90;;;;;;5009899;28;20030;-51
2022/05/04 03:15:47;;;;;;;12.75;6.80;;;2.60;99.90;;;;;;5008454;28;20533;-48
2022/05/04 03:18:14;;;;;;;12.65;7.75;;;2.60;99.90;;;;;;5008538;28;20056;-51
2022/05/04 03:20:39;;;;;;;16.25;8.10;;;2.60;99.90;;;;;;5010105;28;20033;-49
2022/05/04 03:23:05;;;;;;;15.07;7.10;;;2.60;99.90;;;;;;5009697;28;20034;-49
2022/05/04 03:25:30;;;;;;;16.83;7.90;;;2.60;99.90;;;;;;5008009;28;20038;-51
2022/05/04 03:27:56;;;;;;;11.00;7.15;;;2.60;99.90;;;;;;5010074;28;20065;-46
2022/05/04 03:30:21;;;;;;;12.40;7.43;;;2.60;99.90;;;;;;5008522;28;20096;-48
2022/05/04 03:32:47;;;;;;;12.63;7.65;;;2.60;99.90;;;;;;5008591;28;20030;-48
2022/05/04 03:35:12;;;;;;;15.07;7.63;;;2.60;99.90;;;;;;5009856;28;20070;-47
2022/05/04 03:37:38;;;;;;;16.42;8.05;;;2.60;99.90;;;;;;5008573;28;20026;-48
2022/05/04 03:40:04;;;;;;;12.00;7.43;;;2.60;99.90;;;;;;5009691;28;20080;-47
2022/05/04 03:42:30;;;;;;;11.77;7.10;;;2.70;99.90;;;;;;5012650;28;20022;-48
2022/05/04 03:44:56;;;;;;;16.63;7.38;;;2.70;99.90;;;;;;5013317;28;20490;-51
2022/05/04 03:47:22;;;;;;;12.25;7.30;;;2.70;99.90;;;;;;5013225;28;20182;-48
2022/05/04 03:49:47;;;;;;;11.07;7.93;;;2.80;99.90;;;;;;5013298;28;20048;-50
2022/05/04 03:52:13;;;;;;;14.32;7.90;;;2.80;99.90;;;;;;5012762;28;20075;-48
2022/05/04 03:54:38;;;;;;;16.20;7.78;;;2.80;99.90;;;;;;5013292;28;20410;-47
2022/05/04 03:57:05;;;;;;;13.23;7.57;;;2.90;99.90;;;;;;5013597;28;20041;-46
2022/05/04 03:59:31;;;;;;;12.38;7.88;;;2.90;99.90;;;;;;4995820;28;20492;-47
2022/05/04 04:01:57;;;;;;;13.60;8.52;;;2.90;99.90;;;;;;5012950;28;20033;-48
2022/05/04 04:04:22;;;;;;;13.63;7.78;;;3.00;99.90;;;;;;5011867;28;20025;-48
2022/05/04 04:06:48;;;;;;;14.02;8.50;;;3.00;99.90;;;;;;5012974;28;20474;-50
2022/05/04 04:09:13;;;;;;;11.93;7.75;;;3.10;99.90;;;;;;5011439;28;20034;-49
2022/05/04 04:11:39;;;;;;;15.68;8.07;;;3.10;99.90;;;;;;5011186;28;20042;-47
2022/05/04 04:14:05;;;;;;;14.05;7.50;;;3.20;99.90;;;;;;5011471;28;20375;-49
2022/05/04 04:16:30;;;;;;;12.93;7.43;;;3.20;99.90;;;;;;5011056;28;20494;-47
2022/05/04 04:18:56;;;;;;;16.65;8.07;;;3.20;99.90;;;;;;5011105;28;20140;-49
2022/05/04 04:24:06;;;;;;;14.73;7.03;;;3.30;99.90;;;;;;5012764;28;20068;-48
2022/05/04 04:26:32;;;;;;;12.25;6.97;;;3.30;99.90;;;;;;5010975;28;20036;-49
2022/05/04 04:28:58;;;;;;;11.18;7.28;;;3.40;99.90;;;;;;5011059;28;20038;-47
2022/05/04 04:31:24;;;;;;;11.68;6.43;;;3.40;99.90;;;;;;5010644;28;20577;-48
2022/05/04 04:33:49;;;;;;;10.40;6.15;;;3.40;99.90;;;;;;5012397;28;20057;-51
2022/05/04 04:36:15;;;;;;;15.35;6.82;;;3.50;99.90;;;;;;5012476;28;20474;-51
2022/05/04 04:38:41;;;;;;;12.23;7.05;;;3.50;99.90;;;;;;5012252;28;20121;-48
2022/05/04 04:41:06;;;;;;;17.25;7.85;;;3.60;99.90;;;;;;5010861;28;20033;-47
2022/05/04 04:43:32;;;;;;;14.13;6.90;;;3.60;99.90;;;;;;5011833;28;20022;-50
2022/05/04 04:45:58;;;;;;;13.00;6.72;;;3.60;99.90;;;;;;5012041;28;20512;-48
2022/05/04 04:48:24;;;;;;;11.95;6.10;;;3.70;99.90;;;;;;5010470;28;20026;-47
2022/05/04 04:50:50;;;;;;;6.68;5.97;;;3.80;99.90;;;;;;5012078;28;20441;-50
2022/05/04 04:53:16;;;;;;;9.82;5.57;;;3.80;99.90;;;;;;5010518;28;20109;-47
2022/05/04 04:55:45;;;;;;;9.52;6.57;;;3.90;99.90;;;;;;5011881;28;20056;-48
2022/05/04 04:58:12;;;;;;;12.95;6.78;;;3.90;99.90;;;;;;5010757;28;20026;-46
2022/05/04 05:00:38;;;;;;;11.05;5.65;;;3.90;99.90;;;;;;5012283;28;20405;-47
2022/05/04 05:03:04;;;;;;;16.23;7.13;;;3.90;99.90;;;;;;5011746;28;20026;-49
2022/05/04 05:05:29;;;;;;;8.15;6.90;;;4.00;99.90;;;;;;5011720;28;20092;-48
2022/05/04 05:07:55;;;;;;;8.43;5.95;;;4.00;99.90;;;;;;5011707;28;20113;-50
2022/05/04 05:10:20;;;;;;;15.65;6.32;;;4.00;99.90;;;;;;5011786;28;20056;-47
2022/05/04 05:12:47;;;;;;;10.65;5.82;;;4.00;99.90;;;;;;5011775;28;20030;-48
2022/05/04 05:17:57;;;;;;;12.23;5.80;;;4.10;99.90;;;;;;5012141;28;20032;-48
2022/05/04 05:20:22;;;;;;;14.00;5.97;;;4.20;99.90;;;;;;5010929;28;20022;-48
2022/05/04 05:22:48;;;;;;;8.10;5.30;;;4.30;99.90;;;;;;5011167;28;20022;-45
2022/05/04 05:25:13;;;;;;;8.98;6.25;;;4.40;99.90;;;;;;5011236;28;20472;-47
2022/05/04 05:27:40;;;;;;;15.60;6.72;;;4.50;99.90;;;;;;5009665;28;20030;-47
2022/05/04 05:30:06;;;;;;;11.93;5.28;;;4.70;99.90;;;;;;5009868;28;20030;-48
2022/05/04 05:32:32;;;;;;;11.88;6.57;;;4.80;99.90;;;;;;5009473;28;20133;-51
2022/05/04 05:34:58;;;;;;;13.52;6.13;;;4.90;99.90;;;;;;5010929;28;20589;-52
2022/05/04 05:37:23;;;;;;;11.10;6.07;;;5.10;99.90;;;;;;5011329;28;20106;-47
2022/05/04 05:39:49;;;;;;;10.48;5.90;;;5.20;99.90;;;;;;5011230;28;20413;-49
2022/05/04 05:42:15;;;;;;;17.00;6.05;;;5.30;99.90;;;;;;5010645;28;20040;-50
2022/05/04 05:44:41;;;;;;;13.63;6.43;;;5.40;99.90;;;;;;5009851;28;20109;-45
2022/05/04 05:47:07;;;;;;;9.88;5.50;;;5.50;99.90;;;;;;5011294;28;20076;-48
2022/05/04 05:49:32;;;;;;;11.82;5.10;;;5.60;99.90;;;;;;5011054;28;20026;-46
2022/05/04 05:51:58;;;;;;;9.15;4.90;;;5.80;99.90;;;;;;5009439;28;20042;-49
2022/05/04 05:54:24;;;;;;;8.98;4.43;;;5.90;99.90;;;;;;5010058;28;20022;-47
2022/05/04 05:56:49;;;;;;;8.70;4.85;;;6.00;99.90;;;;;;5009586;28;20520;-48
2022/05/04 05:59:15;;;;;;;7.60;4.25;;;6.20;99.90;;;;;;5010822;28;20072;-47
2022/05/04 06:01:41;;;;;;;10.63;4.40;;;6.30;99.90;;;;;;5010397;28;20116;-47
2022/05/04 06:04:08;;;;;;;10.57;4.65;;;6.40;99.90;;;;;;5008946;28;20034;-47
2022/05/04 06:06:33;;;;;;;6.72;4.05;;;6.40;99.90;;;;;;5010185;28;20030;-48
2022/05/04 06:08:59;;;;;;;9.43;4.82;;;6.50;99.90;;;;;;5010706;28;20080;-47
2022/05/04 06:11:25;;;;;;;7.18;4.63;;;6.70;99.90;;;;;;5009021;28;20238;-47
2022/05/04 06:13:51;;;;;;;10.25;4.20;;;6.90;99.90;;;;;;5009325;28;20709;-47
2022/05/04 06:16:17;;;;;;;5.55;3.70;;;7.10;99.90;;;;;;5009328;28;20044;-49
2022/05/04 06:18:42;;;;;;;9.68;4.20;;;7.20;99.90;;;;;;5008906;28;20026;-47
2022/05/04 06:21:08;;;;;;;6.88;3.85;;;7.30;99.90;;;;;;5009525;28;20500;-52
2022/05/04 06:23:34;;;;;;;9.07;3.88;;;7.50;99.90;;;;;;5010514;28;20032;-47
2022/05/04 06:25:59;;;;;;;9.90;3.95;;;7.70;99.90;;;;;;5010363;28;20029;-50
2022/05/04 06:28:25;;;;;;;5.55;3.25;;;7.80;99.90;;;;;;5010602;28;20095;-47
2022/05/04 06:36:19;;;;;;;11.45;3.10;;;8.10;99.90;;;;;;5010587;28;20144;-47
2022/05/04 06:38:44;;;;;;;5.50;3.10;;;8.30;99.90;;;;;;5009451;28;20122;-46
2022/05/04 06:41:10;;;;;;;5.53;3.13;;;8.50;99.90;;;;;;5010500;28;20026;-46
2022/05/04 06:43:35;;;;;;;4.93;2.92;;;8.80;99.90;;;;;;5008839;28;20026;-47
2022/05/04 06:46:01;;;;;;;9.85;2.75;;;9.00;99.90;;;;;;5010372;28;20041;-48
2022/05/04 06:48:27;;;;;;;6.72;2.33;;;9.40;99.90;;;;;;5010248;28;20029;-48
2022/05/04 06:50:52;;;;;;;9.88;2.60;;;9.60;99.90;;;;;;5010459;28;20509;-47
2022/05/04 06:53:18;;;;;;;4.75;2.47;;;9.60;99.90;;;;;;5010017;28;20092;-47
2022/05/04 06:55:43;;;;;;;6.00;2.40;;;9.90;99.90;;;;;;5010132;28;20034;-47
2022/05/04 06:58:09;;;;;;;4.80;1.73;;;9.90;99.90;;;;;;5010156;28;20026;-49
2022/05/04 07:00:35;;;;;;;14.23;2.75;;;10.10;99.90;;;;;;5010138;28;20475;-49
2022/05/04 07:03:01;;;;;;;5.45;1.60;;;10.00;99.90;;;;;;5009900;28;20053;-46
2022/05/04 07:05:26;;;;;;;3.67;1.23;;;9.90;99.90;;;;;;5008887;28;20056;-50
2022/05/04 07:07:53;;;;;;;3.70;1.50;;;9.70;99.90;;;;;;5009020;28;20462;-50
2022/05/04 07:10:19;;;;;;;3.85;1.23;;;9.50;99.90;;;;;;5010534;28;20042;-48
2022/05/04 07:12:44;;;;;;;4.25;1.58;;;9.50;99.90;;;;;;5009707;28;20064;-48
2022/05/04 07:15:11;;;;;;;4.13;1.27;;;9.60;99.90;;;;;;5008822;28;20056;-47
2022/05/04 07:17:36;;;;;;;12.93;3.33;;;9.60;99.90;;;;;;5013457;28;20022;-47
2022/05/04 07:20:03;;;;;;;4.00;1.33;;;9.80;99.90;;;;;;5013769;28;20044;-50
2022/05/04 07:22:28;;;;;;;6.25;1.83;;;9.90;99.90;;;;;;5012174;28;20112;-48
2022/05/04 07:24:54;;;;;;;3.97;1.58;;;10.00;99.90;;;;;;5013884;28;20117;-46
2022/05/04 07:27:19;;;;;;;9.88;2.00;;;10.00;99.90;;;;;;5013530;28;20131;-47
2022/05/04 07:29:46;;;;;;;6.28;2.13;;;10.20;99.90;;;;;;5013556;28;20379;-47
2022/05/04 07:32:12;;;;;;;3.63;1.40;;;10.40;99.90;;;;;;5012166;28;20058;-47
2022/05/04 07:34:38;;;;;;;4.65;1.35;;;10.70;99.90;;;;;;5012106;28;20095;-47
2022/05/04 07:37:04;;;;;;;2.72;1.33;;;11.00;99.90;;;;;;5013520;28;20515;-48
2022/05/04 07:42:26;;;;;;;3.38;1.02;;;11.40;99.90;;;;;;5013643;28;20068;-47
2022/05/04 07:44:58;;;;;;;3.08;1.73;;;11.70;99.90;;;;;;5013293;28;20021;-47
2022/05/04 07:47:25;;;;;;;2.95;1.05;;;11.70;99.50;;;;;;5013511;28;20025;-52
2022/05/04 07:49:51;;;;;;;5.30;1.85;;;11.70;99.90;;;;;;5012785;28;20025;-52
2022/05/04 07:52:17;;;;;;;5.63;1.30;;;11.90;99.90;;;;;;5009110;28;20026;-51
2022/05/04 07:54:42;;;;;;;4.80;1.00;;;12.10;99.90;;;;;;5012213;28;20018;-48
2022/05/04 07:57:08;;;;;;;5.70;1.27;;;12.40;99.10;;;;;;5011781;28;20137;-50
2022/05/04 07:59:34;;;;;;;5.60;1.70;;;12.60;97.90;;;;;;5013143;28;20030;-49
2022/05/04 08:04:44;;;;;;;4.57;1.48;;;12.10;97.50;;;;;;5012461;28;20029;-52
2022/05/04 08:07:10;;;;;;;3.20;1.30;;;11.90;97.80;;;;;;5012787;28;20101;-49
2022/05/04 08:09:36;;;;;;;6.35;1.15;;;12.00;97.10;;;;;;5011766;28;20414;-47
2022/05/04 08:12:11;;;;;;;5.93;1.67;;;12.10;97.70;;;;;;5012698;28;20122;-50
2022/05/04 08:14:36;;;;;;;6.47;1.77;;;12.30;97.00;;;;;;5011469;28;20516;-47
2022/05/04 08:17:02;;;;;;;6.05;1.40;;;12.70;97.70;;;;;;5012324;28;20053;-48
2022/05/04 08:19:28;;;;;;;3.42;1.00;;;13.20;96.90;;;;;;5012366;28;20032;-50
2022/05/04 08:21:54;;;;;;;3.00;1.17;;;13.50;95.90;;;;;;5012264;28;20060;-53
2022/05/04 08:24:20;;;;;;;7.15;2.25;;;13.60;96.40;;;;;;5012644;28;20022;-47
2022/05/04 08:26:46;;;;;;;4.90;1.17;;;13.30;94.80;;;;;;5011143;28;20022;-47
2022/05/04 08:29:12;;;;;;;3.55;1.10;;;13.30;95.60;;;;;;5011687;28;20029;-48
2022/05/04 08:31:40;;;;;;;6.65;1.25;;;13.40;95.10;;;;;;5012200;28;20592;-46
2022/05/04 08:34:09;;;;;;;4.50;1.98;;;13.50;94.20;;;;;;5012204;28;20037;-48
2022/05/04 08:36:38;;;;;;;4.60;0.88;;;13.50;93.00;;;;;;5011941;28;20540;-49
2022/05/04 08:39:06;;;;;;;4.05;1.25;;;13.60;94.00;;;;;;5012156;28;20032;-49
2022/05/04 08:41:33;;;;;;;4.68;1.30;;;13.30;94.40;;;;;;5011657;28;20033;-52
2022/05/04 08:44:03;;;;;;;3.53;1.67;;;13.30;93.50;;;;;;5010639;28;20088;-47
2022/05/04 08:46:29;;;;;;;3.00;1.60;;;13.40;94.10;;;;;;5010502;28;20033;-51
2022/05/04 08:48:55;;;;;;;1.67;0.90;;;13.80;94.10;;;;;;5011884;28;20398;-48
2022/05/04 08:51:21;;;;;;;6.50;1.60;;;14.10;93.90;;;;;;5010134;28;20055;-47
2022/05/04 08:53:49;;;;;;;3.00;1.30;;;14.60;92.60;;;;;;5078075;23;20657;-51
2022/05/04 08:56:14;;;;;;;4.22;1.75;;;14.90;92.10;;;;;;5011702;28;20109;-51
2022/05/04 08:58:40;;;;;;;4.90;1.50;;;15.20;91.40;;;;;;5011911;28;20099;-50
2022/05/04 09:01:06;;;;;;;1.77;1.23;;;15.30;90.90;;;;;;5011485;28;20030;-51
2022/05/04 09:03:32;;;;;;;3.50;1.42;;;15.30;92.50;;;;;;5010883;28;20014;-49
2022/05/04 09:05:58;;;;;;;4.22;1.42;;;15.30;87.80;;;;;;5011963;28;20445;-51
2022/05/04 09:08:24;;;;;;;5.15;1.48;;;15.00;88.80;;;;;;5012212;28;20029;-51
2022/05/04 09:10:49;;;;;;;3.47;1.20;;;15.20;90.20;;;;;;5011825;28;20112;-50
2022/05/04 09:13:18;;;;;;;3.88;1.13;;;15.40;88.80;;;;;;5011326;28;20076;-49
2022/05/04 09:15:43;;;;;;;6.20;1.90;;;15.70;90.60;;;;;;5011437;28;20033;-51
2022/05/04 09:18:13;;;;;;;2.20;1.20;;;16.00;89.00;;;;;;5011229;28;20141;-50
2022/05/04 09:20:45;;;;;;;6.45;1.85;;;15.90;87.80;;;;;;5010957;28;20033;-49
2022/05/04 09:23:16;;;;;;;3.30;1.63;;;15.60;85.60;;;;;;5010917;28;20054;-53
2022/05/04 09:25:42;;;;;;;4.63;1.50;;;15.30;87.10;;;;;;5011162;28;20030;-52
2022/05/04 09:28:13;;;;;;;2.97;1.70;;;14.90;86.90;;;;;;5011167;28;20034;-50
2022/05/04 09:31:03;;;;;;;4.70;1.63;;;14.60;90.00;;;;;;4993213;28;20510;-51
2022/05/04 09:33:31;;;;;;;4.43;1.20;;;14.60;90.10;;;;;;5010527;28;20034;-50
2022/05/04 09:35:58;;;;;;;5.20;1.77;;;14.70;90.20;;;;;;5011132;28;20069;-50
2022/05/04 09:46:51;;;;;;;4.68;1.73;;;13.70;90.20;;;;;;5011499;28;20036;-50
2022/05/04 09:49:19;;;;;;;5.45;1.42;;;13.70;91.40;;;;;;5011283;28;20069;-49
2022/05/04 09:51:50;;;;;;;5.95;1.98;;;14.00;91.30;;;;;;5010831;28;20379;-53
2022/05/04 09:54:44;;;;;;;7.78;1.83;;;14.00;89.80;;;;;;5010886;28;20490;-49
2022/05/04 09:57:10;;;;;;;3.45;1.55;;;13.90;90.90;;;;;;5007954;28;20065;-50
2022/05/04 09:59:36;;;;;;;3.53;1.83;;;14.10;90.60;;;;;;5010624;28;20021;-50
2022/05/04 10:02:09;;;;;;;4.88;1.73;;;14.10;90.10;;;;;;5010471;28;20068;-50
2022/05/04 10:04:36;;;;;;;6.60;1.67;;;14.40;92.00;;;;;;5010462;28;20018;-49
2022/05/04 10:07:03;;;;;;;7.30;1.27;;;14.60;89.30;;;;;;5010724;28;20109;-51
2022/05/04 10:09:29;;;;;;;5.47;2.00;;;14.80;90.00;;;;;;5010675;28;20052;-52
2022/05/04 10:11:57;;;;;;;4.82;1.58;;;14.80;86.90;;;;;;5010130;28;20041;-49
2022/05/04 10:14:24;;;;;;;5.80;2.28;;;14.90;88.70;;;;;;5010495;28;20029;-50
2022/05/04 10:17:14;;;;;;;7.05;1.88;;;15.00;91.50;;;;;;5010277;28;20076;-49
2022/05/04 10:19:50;;;;;;;4.03;1.65;;;15.30;90.10;;;;;;4992415;28;20088;-51
2022/05/04 10:22:22;;;;;;;5.20;1.80;;;15.50;87.80;;;;;;4992454;28;20125;-50
2022/05/04 10:24:48;;;;;;;4.95;1.58;;;15.40;86.60;;;;;;5010137;28;20109;-51
2022/05/04 10:27:22;;;;;;;7.07;1.70;;;15.50;87.40;;;;;;5010621;28;20018;-50
2022/05/04 10:32:43;;;;;;;6.70;1.50;;;15.90;87.70;;;;;;5010137;28;20144;-50
2022/05/04 10:35:43;;;;;;;5.05;1.48;;;15.90;87.00;;;;;;5009828;28;20029;-53
2022/05/04 10:38:38;;;;;;;4.97;1.92;;;15.70;86.30;;;;;;5010219;28;20029;-49
2022/05/04 10:41:07;;;;;;;4.60;1.80;;;15.60;85.40;;;;;;5006620;28;20037;-50
2022/05/04 10:43:47;;;;;;;4.70;2.13;;;15.90;89.40;;;;;;5010157;28;20030;-48
2022/05/04 10:46:23;;;;;;;3.92;1.60;;;16.20;89.10;;;;;;5010234;28;20026;-55
2022/05/04 10:49:02;;;;;;;3.70;1.77;;;16.20;82.90;;;;;;4992857;28;20165;-49
2022/05/04 10:51:39;;;;;;;6.43;1.90;;;15.90;84.60;;;;;;4991624;28;20087;-49
2022/05/04 10:54:10;;;;;;;4.25;1.80;;;15.80;85.30;;;;;;5010050;28;20042;-52
2022/05/04 10:56:46;;;;;;;4.25;1.58;;;15.90;87.30;;;;;;5010247;28;20029;-50
2022/05/04 10:59:26;;;;;;;5.10;1.83;;;16.00;87.00;;;;;;5010043;28;20050;-47
2022/05/04 11:01:56;;;;;;;3.15;1.70;;;16.20;83.70;;;;;;5009332;28;20026;-50
2022/05/04 11:04:25;;;;;;;4.28;1.45;;;16.00;82.50;;;;;;4991585;28;20026;-48
2022/05/04 11:07:03;;;;;;;3.72;1.80;;;15.90;87.20;;;;;;5009887;28;20037;-50
2022/05/04 11:09:32;;;;;;;10.00;2.15;;;16.10;88.70;;;;;;5010147;28;20486;-52
2022/05/04 11:12:04;;;;;;;6.88;1.75;;;15.70;84.30;;;;;;5009470;28;20026;-51
2022/05/04 11:14:32;;;;;;;5.07;1.48;;;15.30;85.80;;;;;;5009768;28;20101;-49
2022/05/04 11:16:58;;;;;;;5.30;1.45;;;15.00;84.20;;;;;;5009783;28;20104;-49
2022/05/04 11:19:26;;;;;;;7.78;2.22;;;14.90;86.10;;;;;;5008981;28;20101;-50
2022/05/04 11:21:53;;;;;;;6.28;1.90;;;15.00;88.10;;;;;;5008552;28;20091;-49
2022/05/04 11:24:19;;;;;;;3.40;1.52;;;15.30;90.00;;;;;;5009798;28;20084;-50
2022/05/04 11:26:55;;;;;;;2.25;1.55;;;15.70;88.60;;;;;;5009047;28;20034;-48
2022/05/04 11:29:28;;;;;;;4.47;1.77;;;15.80;84.60;;;;;;5009768;28;20033;-47
2022/05/04 11:32:02;;;;;;;4.53;1.70;;;15.80;84.20;;;;;;5009229;28;20107;-51
2022/05/04 11:34:38;;;;;;;3.35;1.90;;;16.00;88.20;;;;;;5009721;28;20025;-49
2022/05/04 11:37:09;;;;;;;3.95;1.80;;;16.20;85.60;;;;;;4991696;28;20370;-51
2022/05/04 11:39:36;;;;;;;4.97;1.98;;;16.50;86.90;;;;;;5009464;28;20167;-48
2022/05/04 11:42:04;;;;;;;6.40;1.65;;;16.20;81.20;;;;;;5009468;28;20019;-51
2022/05/04 11:44:30;;;;;;;6.93;2.10;;;15.90;82.30;;;;;;5009933;28;20432;-50
2022/05/04 11:46:58;;;;;;;3.45;1.52;;;15.00;84.10;;;;;;5010280;28;20030;-49
2022/05/04 11:49:25;;;;;;;3.45;1.77;;;15.00;85.70;;;;;;5009633;28;20625;-48
2022/05/04 11:51:53;;;;;;;4.60;2.70;;;14.90;83.40;;;;;;5009140;28;20029;-54
2022/05/04 11:54:19;;;;;;;5.30;1.98;;;14.60;84.60;;;;;;5009348;28;20040;-50
2022/05/04 11:56:45;;;;;;;3.63;1.30;;;14.60;84.30;;;;;;5009573;28;20030;-47
2022/05/04 11:59:10;;;;;;;6.68;1.83;;;14.60;86.20;;;;;;5009608;28;20026;-48
2022/05/04 12:01:37;;;;;;;3.38;1.75;;;14.80;85.80;;;;;;5009338;28;20072;-49
2022/05/04 12:04:04;;;;;;;5.30;2.17;;;14.90;85.90;;;;;;5011390;28;20343;-50
2022/05/04 12:06:32;;;;;;;8.25;2.13;;;15.00;85.00;;;;;;5012393;28;20080;-53
2022/05/04 12:08:59;;;;;;;4.82;2.03;;;15.00;85.70;;;;;;5012998;28;20375;-49
2022/05/04 12:11:25;;;;;;;3.47;1.60;;;15.20;86.50;;;;;;5012285;28;20026;-52
2022/05/04 12:13:52;;;;;;;6.20;2.10;;;15.40;88.40;;;;;;5012445;28;20022;-49
2022/05/04 12:16:18;;;;;;;2.65;1.83;;;15.60;85.90;;;;;;5012792;28;20018;-50
2022/05/04 12:18:44;;;;;;;12.70;2.88;;;15.80;86.90;;;;;;5012314;28;20022;-50
2022/05/04 12:21:16;;;;;;;4.95;2.72;;;16.10;87.20;;;;;;5012458;28;20054;-51
2022/05/04 12:23:47;;;;;;;7.90;1.92;;;16.20;83.30;;;;;;5012541;28;20474;-48
2022/05/04 12:26:13;;;;;;;4.95;1.70;;;16.00;82.80;;;;;;5012563;28;20065;-51
2022/05/04 12:28:41;;;;;;;11.82;2.35;;;15.90;83.40;;;;;;5012493;28;20485;-53
2022/05/04 12:33:56;;;;;;;3.50;1.67;;;15.80;82.20;;;;;;5012718;28;20064;-48
2022/05/04 12:36:23;;;;;;;7.00;2.65;;;15.70;83.80;;;;;;5012132;28;20030;-49
2022/05/04 12:38:51;;;;;;;2.55;1.63;;;15.60;83.10;;;;;;5012232;28;20030;-48
2022/05/04 12:41:19;;;;;;;4.50;1.92;;;15.60;82.10;;;;;;5011802;28;20025;-50
2022/05/04 12:43:46;;;;;;;3.22;1.73;;;15.70;85.50;;;;;;5011972;28;20040;-49
2022/05/04 12:46:15;;;;;;;3.00;2.20;;;15.70;82.80;;;;;;5011752;28;20041;-49
2022/05/04 12:48:42;;;;;;;3.95;2.08;;;15.80;82.20;;;;;;5012004;28;20030;-50
2022/05/04 12:51:09;;;;;;;4.57;2.00;;;15.90;83.20;;;;;;5011722;28;20037;-48
2022/05/04 12:53:38;;;;;;;3.45;2.42;;;15.80;82.60;;;;;;5011599;28;20061;-48
2022/05/04 12:58:49;;;;;;;3.85;1.92;;;15.80;83.30;;;;;;5012549;28;20036;-50
2022/05/04 13:01:14;;;;;;;6.60;2.95;;;15.90;85.30;;;;;;5011862;28;20025;-48
2022/05/04 13:03:40;;;;;;;5.07;2.22;;;16.00;81.70;;;;;;5011817;28;20501;-49
2022/05/04 13:06:05;;;;;;;5.43;2.05;;;15.80;81.60;;;;;;4993794;28;20026;-53
2022/05/04 13:08:31;;;;;;;6.15;1.73;;;15.70;81.20;;;;;;5011875;28;20041;-48
2022/05/04 13:10:57;;;;;;;6.00;2.05;;;15.70;82.50;;;;;;5011610;28;20077;-48
2022/05/04 13:13:25;;;;;;;9.30;2.22;;;16.10;84.30;;;;;;4993489;28;20445;-46
2022/05/04 13:15:51;;;;;;;3.40;1.60;;;16.30;81.90;;;;;;5011295;28;20053;-47
2022/05/04 13:18:21;;;;;;;3.83;2.33;;;16.50;85.00;;;;;;5011135;28;20034;-54
2022/05/04 13:20:47;;;;;;;3.47;2.05;;;16.50;81.50;;;;;;5011760;28;20029;-50
2022/05/04 13:23:12;;;;;;;9.27;2.65;;;16.40;81.70;;;;;;5011523;28;20026;-53
2022/05/04 13:25:38;;;;;;;4.80;1.88;;;16.60;82.30;;;;;;5011346;28;20500;-52
2022/05/04 13:28:04;;;;;;;3.67;2.25;;;16.80;83.20;;;;;;5011221;28;20018;-52
2022/05/04 13:30:31;;;;;;;5.45;2.90;;;16.80;80.50;;;;;;5011463;28;20514;-51